Bradley International Airpor, Connecticut
Current Conditions -  °F | °C
As of 5:51 PM on Tuesday 25 Nov 2014 (Local Time) from KBDL Reporting Station
Clear Clear  
Wind Chill: 46°   Ceiling: Unl
Heat Index: 49°   Visibility: 10mi
Dew Point: 28°   Wind: 7mph
Humidity: 44%   Direction: 220°SW
Pressure: 30"   Gusts: NA
Location:  41.9268°N, 72.6555°W
Report Text: KBDL 252251Z 22006KT 10SM CLR 09/M02 A3000 RMK AO2 SLP160 T00941022
Loading
Personal Weather Stations






























Interactive Weather Map New forecast layout! Learn more

10-Day Weather Forecast

Advertisements
Track Severe Weather on mobile